Twigg, Illinois
Current Conditions -  °F | °C
As of 8:35 PM on Friday 24 Oct 2014 (Local Time) from KHSB Reporting Station
Haze Haze  
Wind Chill: 11°   Ceiling: Unl
Heat Index: 11°   Visibility: 4mi
Dew Point: 11°   Wind: 0mph
Humidity: 100%   Direction: NA
Pressure: 30.06"   Gusts: NA
Location:  37.9948°N, 88.5401°W
Report Text: KHSB 250135Z AUTO 00000KT 4SM BR CLR 11/11 A3006 RMK AO2 T01060106
Loading
Personal Weather Stations






























Interactive Weather Map
Tropical Storm Tracking
New forecast layout! Learn more

10-Day Weather Forecast

Advertisements
Track Severe Weather on mobile